Time;durP1;ratioP1;P1;durP2;ratioP2;P2;SDS_P1;SDS_P2;PMS_P1;PMS_P2;Temp;Humidity;BMP_temperature;BMP_pressure;BME280_temperature;BME280_humidity;BME280_pressure;Samples;Min_cycle;Max_cycle;Signal;HPM_P1;HPM_P2
2023/05/25 00:00:32;;;;;;;15.80;5.43;;;;;;;;;;4962004;28;25143;-73
2023/05/25 00:02:59;;;;;;;18.40;5.40;;;;;;;;;;4958407;28;25058;-73
2023/05/25 00:05:26;;;;;;;17.00;6.38;;;;;;;;;;4962175;28;25040;-73
2023/05/25 00:07:53;;;;;;;16.13;6.45;;;;;;;;;;4958317;28;25091;-72
2023/05/25 00:10:19;;;;;;;13.07;5.43;;;;;;;;;;4962100;28;25057;-71
2023/05/25 00:12:45;;;;;;;18.23;6.03;;;;;;;;;;4961362;28;25068;-72
2023/05/25 00:15:11;;;;;;;17.42;5.60;;;;;;;;;;4961996;28;25079;-73
2023/05/25 00:17:37;;;;;;;13.70;6.25;;;;;;;;;;4960470;28;25047;-69
2023/05/25 00:20:06;;;;;;;18.73;5.85;;;;;;;;;;4959874;28;25069;-73
2023/05/25 00:22:33;;;;;;;20.85;5.65;;;;;;;;;;4962512;28;25140;-72
2023/05/25 00:24:59;;;;;;;18.42;5.47;;;;;;;;;;4965832;28;25082;-73
2023/05/25 00:27:25;;;;;;;17.52;5.47;;;;;;;;;;4958862;28;25056;-73
2023/05/25 00:29:51;;;;;;;18.48;5.72;;;;;;;;;;4964133;28;25077;-73
2023/05/25 00:32:17;;;;;;;18.63;6.70;;;;;;;;;;4963999;28;25129;-74
2023/05/25 00:34:42;;;;;;;17.00;6.35;;;;;;;;;;4962865;28;25059;-73
2023/05/25 00:37:08;;;;;;;21.92;7.18;;;;;;;;;;4959514;28;25070;-72
2023/05/25 00:39:34;;;;;;;20.10;6.63;;;;;;;;;;4961186;28;25057;-73
2023/05/25 00:42:01;;;;;;;18.42;6.30;;;;;;;;;;4958951;28;25097;-74
2023/05/25 00:44:28;;;;;;;21.23;6.65;;;;;;;;;;4959553;28;25059;-73
2023/05/25 00:46:54;;;;;;;21.90;6.40;;;;;;;;;;4959067;28;25160;-73
2023/05/25 00:49:24;;;;;;;17.65;6.25;;;;;;;;;;4958904;28;25059;-72
2023/05/25 00:51:51;;;;;;;18.58;6.57;;;;;;;;;;4959668;28;25152;-71
2023/05/25 00:54:18;;;;;;;24.35;6.43;;;;;;;;;;4958791;28;25079;-72
2023/05/25 00:56:51;;;;;;;19.45;6.35;;;;;;;;;;4959649;28;25119;-71
2023/05/25 00:59:19;;;;;;;19.63;6.90;;;;;;;;;;4957966;28;25073;-72
2023/05/25 01:01:46;;;;;;;20.35;7.72;;;;;;;;;;4959594;28;25152;-73
2023/05/25 01:04:14;;;;;;;18.13;7.15;;;;;;;;;;4959551;28;25060;-72
2023/05/25 01:06:43;;;;;;;21.77;7.35;;;;;;;;;;4958490;28;25071;-73
2023/05/25 01:09:11;;;;;;;19.67;7.57;;;;;;;;;;4956512;28;25104;-73
2023/05/25 01:11:39;;;;;;;15.95;6.03;;;;;;;;;;4960212;28;25065;-71
2023/05/25 01:14:05;;;;;;;18.48;6.60;;;;;;;;;;4956625;28;25139;-73
2023/05/25 01:16:31;;;;;;;17.63;8.10;;;;;;;;;;4960537;28;25048;-72
2023/05/25 01:18:57;;;;;;;20.25;7.22;;;;;;;;;;4961902;28;25094;-73
2023/05/25 01:21:23;;;;;;;14.48;7.20;;;;;;;;;;4958521;28;25070;-73
2023/05/25 01:23:55;;;;;;;25.85;7.80;;;;;;;;;;4955954;28;25073;-72
2023/05/25 01:26:23;;;;;;;19.38;7.93;;;;;;;;;;4959399;28;25059;-72
2023/05/25 01:28:51;;;;;;;21.40;7.75;;;;;;;;;;4958514;28;25070;-71
2023/05/25 01:31:20;;;;;;;26.30;7.95;;;;;;;;;;4961748;28;25137;-72
2023/05/25 01:33:47;;;;;;;28.80;8.00;;;;;;;;;;4960106;28;26093;-72
2023/05/25 01:36:13;;;;;;;25.58;7.57;;;;;;;;;;4959676;28;25057;-73
2023/05/25 01:38:39;;;;;;;21.35;7.57;;;;;;;;;;4957369;28;25121;-72
2023/05/25 01:41:05;;;;;;;21.73;8.68;;;;;;;;;;4958731;28;25115;-70
2023/05/25 01:43:31;;;;;;;20.67;8.32;;;;;;;;;;4953120;28;25160;-72
2023/05/25 01:46:02;;;;;;;18.25;7.72;;;;;;;;;;4961658;28;25057;-71
2023/05/25 01:48:54;;;;;;;21.08;7.90;;;;;;;;;;4955441;28;25114;-71
2023/05/25 01:51:31;;;;;;;19.45;8.88;;;;;;;;;;4956536;28;25086;-71
2023/05/25 01:54:08;;;;;;;23.98;8.40;;;;;;;;;;4956082;28;25172;-71
2023/05/25 01:56:35;;;;;;;26.00;7.57;;;;;;;;;;4960265;28;25095;-72
2023/05/25 01:59:02;;;;;;;16.70;8.82;;;;;;;;;;4956272;28;25074;-73
2023/05/25 02:01:28;;;;;;;24.67;9.05;;;;;;;;;;4958980;28;25074;-73
2023/05/25 02:03:54;;;;;;;19.67;8.80;;;;;;;;;;4958236;28;25104;-71
2023/05/25 02:06:20;;;;;;;26.25;9.25;;;;;;;;;;4960407;28;25175;-72
2023/05/25 02:08:46;;;;;;;21.02;8.27;;;;;;;;;;4959055;28;25068;-72
2023/05/25 02:11:15;;;;;;;20.00;8.90;;;;;;;;;;4962047;28;25055;-71
2023/05/25 02:13:41;;;;;;;18.67;8.85;;;;;;;;;;4964050;28;25094;-71
2023/05/25 02:16:07;;;;;;;18.92;8.77;;;;;;;;;;4964204;28;25103;-73
2023/05/25 02:18:33;;;;;;;20.98;9.30;;;;;;;;;;4963519;28;25061;-72
2023/05/25 02:20:59;;;;;;;19.88;7.85;;;;;;;;;;4963389;28;25062;-73
2023/05/25 02:23:25;;;;;;;18.77;8.13;;;;;;;;;;4967091;28;25100;-73
2023/05/25 02:25:51;;;;;;;20.30;8.60;;;;;;;;;;4971245;28;25101;-73
2023/05/25 02:28:17;;;;;;;16.88;7.32;;;;;;;;;;4973805;28;25058;-72
2023/05/25 02:30:43;;;;;;;19.02;7.90;;;;;;;;;;4975659;28;25051;-72
2023/05/25 02:33:10;;;;;;;18.10;7.22;;;;;;;;;;4962320;28;25146;-72
2023/05/25 02:35:37;;;;;;;19.70;7.35;;;;;;;;;;4966198;28;25081;-73
2023/05/25 02:38:03;;;;;;;28.98;7.63;;;;;;;;;;4964983;28;25067;-71
2023/05/25 02:40:29;;;;;;;18.42;7.88;;;;;;;;;;4966279;28;25055;-73
2023/05/25 02:42:54;;;;;;;24.35;9.43;;;;;;;;;;4959891;28;25140;-72
2023/05/25 02:45:20;;;;;;;21.00;7.93;;;;;;;;;;4959634;28;25061;-72
2023/05/25 02:47:46;;;;;;;13.30;6.35;;;;;;;;;;4961676;28;25062;-72
2023/05/25 02:50:12;;;;;;;23.33;7.07;;;;;;;;;;4962477;28;25055;-72
2023/05/25 02:52:38;;;;;;;13.80;5.75;;;;;;;;;;4960803;28;25148;-71
2023/05/25 02:55:04;;;;;;;24.52;6.25;;;;;;;;;;4962469;28;25134;-70
2023/05/25 02:57:30;;;;;;;16.35;6.88;;;;;;;;;;4962002;28;25074;-73
2023/05/25 02:59:56;;;;;;;18.33;5.05;;;;;;;;;;4963570;28;25144;-71
2023/05/25 03:02:24;;;;;;;10.30;4.47;;;;;;;;;;4961533;28;25057;-71
2023/05/25 03:04:52;;;;;;;11.45;5.72;;;;;;;;;;4963270;28;25072;-71
2023/05/25 03:07:18;;;;;;;11.63;5.47;;;;;;;;;;4961247;28;25082;-72
2023/05/25 03:09:44;;;;;;;18.63;6.32;;;;;;;;;;4962070;28;25078;-72
2023/05/25 03:12:10;;;;;;;13.23;6.13;;;;;;;;;;4961927;28;25076;-71
2023/05/25 03:14:36;;;;;;;17.35;7.32;;;;;;;;;;4965414;28;25069;-73
2023/05/25 03:17:02;;;;;;;16.55;6.63;;;;;;;;;;4962545;28;25101;-72
2023/05/25 03:19:28;;;;;;;13.02;6.72;;;;;;;;;;4962223;28;25070;-72
2023/05/25 03:21:54;;;;;;;16.95;7.82;;;;;;;;;;4960347;28;25105;-73
2023/05/25 03:24:20;;;;;;;16.88;6.72;;;;;;;;;;4964329;28;25069;-72
2023/05/25 03:26:46;;;;;;;25.33;7.38;;;;;;;;;;4964050;28;25057;-72
2023/05/25 03:29:12;;;;;;;15.30;6.35;;;;;;;;;;4962574;28;25175;-71
2023/05/25 03:31:38;;;;;;;15.63;6.43;;;;;;;;;;4968623;28;25134;-74
2023/05/25 03:34:05;;;;;;;14.35;6.50;;;;;;;;;;4963540;28;25061;-72
2023/05/25 03:36:32;;;;;;;12.65;6.57;;;;;;;;;;4967077;28;25055;-72
2023/05/25 03:38:58;;;;;;;17.65;6.78;;;;;;;;;;4961074;28;25160;-74
2023/05/25 03:41:25;;;;;;;16.80;5.93;;;;;;;;;;4960542;28;25053;-74
2023/05/25 03:43:51;;;;;;;15.05;6.68;;;;;;;;;;4963216;28;25068;-72
2023/05/25 03:46:17;;;;;;;14.35;6.03;;;;;;;;;;4960804;28;25063;-72
2023/05/25 03:48:43;;;;;;;15.00;6.53;;;;;;;;;;4961090;28;25060;-72
2023/05/25 03:51:09;;;;;;;15.75;6.45;;;;;;;;;;4963517;28;25068;-72
2023/05/25 03:53:35;;;;;;;23.92;6.82;;;;;;;;;;4967609;28;25098;-71
2023/05/25 03:56:01;;;;;;;14.63;6.05;;;;;;;;;;4968215;28;25079;-72
2023/05/25 03:58:27;;;;;;;15.25;6.50;;;;;;;;;;4965576;28;25122;-72
2023/05/25 04:00:55;;;;;;;17.73;5.63;;;;;;;;;;4967171;28;25056;-72
2023/05/25 04:03:21;;;;;;;13.80;5.93;;;;;;;;;;4964940;28;25060;-73
2023/05/25 04:05:47;;;;;;;14.18;5.63;;;;;;;;;;4963949;28;25073;-71
2023/05/25 04:08:16;;;;;;;20.77;6.32;;;;;;;;;;4963058;28;25083;-73
2023/05/25 04:10:43;;;;;;;23.80;8.32;;;;;;;;;;4963009;28;25155;-72
2023/05/25 04:13:09;;;;;;;16.83;6.47;;;;;;;;;;4960720;28;25099;-73
2023/05/25 04:15:35;;;;;;;15.95;6.63;;;;;;;;;;4961195;28;25079;-71
2023/05/25 04:18:02;;;;;;;17.65;6.47;;;;;;;;;;4959133;28;25066;-73
2023/05/25 04:20:28;;;;;;;17.75;6.72;;;;;;;;;;4962049;28;25040;-73
2023/05/25 04:22:54;;;;;;;16.58;6.97;;;;;;;;;;4959168;28;25073;-72
2023/05/25 04:25:20;;;;;;;17.08;5.75;;;;;;;;;;4960327;28;25060;-71
2023/05/25 04:27:46;;;;;;;15.82;6.57;;;;;;;;;;4960187;28;25111;-72
2023/05/25 04:30:12;;;;;;;17.30;7.07;;;;;;;;;;4961062;28;25124;-72
2023/05/25 04:32:39;;;;;;;13.48;6.22;;;;;;;;;;4966989;28;25071;-73
2023/05/25 04:35:05;;;;;;;13.90;5.75;;;;;;;;;;4972260;28;25052;-73
2023/05/25 04:37:32;;;;;;;13.70;6.80;;;;;;;;;;4964912;28;25081;-71
2023/05/25 04:39:58;;;;;;;15.18;6.65;;;;;;;;;;4962460;28;25067;-72
2023/05/25 04:42:24;;;;;;;13.48;7.00;;;;;;;;;;4963835;28;25145;-73
2023/05/25 04:44:57;;;;;;;22.25;6.93;;;;;;;;;;4962835;28;25076;-72
2023/05/25 04:47:24;;;;;;;13.73;5.88;;;;;;;;;;4959738;28;25112;-73
2023/05/25 04:49:50;;;;;;;15.90;8.02;;;;;;;;;;4959928;28;25159;-72
2023/05/25 04:52:16;;;;;;;17.70;7.53;;;;;;;;;;4960379;28;25173;-72
2023/05/25 04:54:42;;;;;;;11.75;6.20;;;;;;;;;;4955259;28;25081;-72
2023/05/25 04:57:08;;;;;;;20.05;6.53;;;;;;;;;;4959298;28;25070;-72
2023/05/25 04:59:34;;;;;;;18.20;7.05;;;;;;;;;;4962807;28;25055;-69
2023/05/25 05:02:00;;;;;;;16.50;6.90;;;;;;;;;;4965113;28;25064;-73
2023/05/25 05:04:26;;;;;;;16.50;6.43;;;;;;;;;;4960915;28;25059;-72
2023/05/25 05:06:53;;;;;;;12.43;6.60;;;;;;;;;;4959344;28;25053;-71
2023/05/25 05:09:19;;;;;;;16.17;6.90;;;;;;;;;;4959831;28;25059;-71
2023/05/25 05:11:45;;;;;;;16.60;6.32;;;;;;;;;;4962484;28;25056;-70
2023/05/25 05:14:11;;;;;;;14.05;6.82;;;;;;;;;;4959455;28;25085;-71
2023/05/25 05:16:37;;;;;;;14.77;7.10;;;;;;;;;;4958359;28;25082;-73
2023/05/25 05:19:03;;;;;;;23.67;7.60;;;;;;;;;;4959447;28;25097;-70
2023/05/25 05:21:29;;;;;;;15.73;6.68;;;;;;;;;;4959561;28;25060;-73
2023/05/25 05:23:55;;;;;;;15.65;6.28;;;;;;;;;;4956537;28;25084;-72
2023/05/25 05:26:21;;;;;;;14.50;6.43;;;;;;;;;;4960212;28;25137;-71
2023/05/25 05:28:47;;;;;;;15.55;6.00;;;;;;;;;;4957975;28;25073;-72
2023/05/25 05:31:16;;;;;;;13.75;6.43;;;;;;;;;;4960827;28;25070;-73
2023/05/25 05:33:42;;;;;;;16.80;6.45;;;;;;;;;;4957078;28;25147;-71
2023/05/25 05:36:08;;;;;;;24.17;7.93;;;;;;;;;;4960432;28;25071;-72
2023/05/25 05:38:34;;;;;;;14.75;6.63;;;;;;;;;;4960912;28;25057;-71
2023/05/25 05:41:01;;;;;;;18.92;6.88;;;;;;;;;;4962297;28;25078;-71
2023/05/25 05:43:27;;;;;;;17.27;6.35;;;;;;;;;;4957328;28;25144;-71
2023/05/25 05:45:53;;;;;;;12.90;6.43;;;;;;;;;;4959922;28;25082;-74
2023/05/25 05:48:19;;;;;;;19.60;7.43;;;;;;;;;;4957073;28;25138;-72
2023/05/25 05:50:45;;;;;;;15.15;6.75;;;;;;;;;;4959245;28;25057;-70
2023/05/25 05:53:11;;;;;;;11.90;5.38;;;;;;;;;;4957241;28;25070;-72
2023/05/25 05:55:37;;;;;;;11.85;5.63;;;;;;;;;;4962471;28;25053;-71
2023/05/25 05:58:03;;;;;;;14.00;5.88;;;;;;;;;;4957669;28;25047;-71
2023/05/25 06:00:29;;;;;;;15.10;6.43;;;;;;;;;;4958679;28;25077;-70
2023/05/25 06:02:55;;;;;;;16.38;6.28;;;;;;;;;;4958784;28;25060;-71
2023/05/25 06:05:21;;;;;;;14.27;5.93;;;;;;;;;;4959912;28;25076;-70
2023/05/25 06:07:48;;;;;;;12.18;5.10;;;;;;;;;;4956722;28;25083;-70
2023/05/25 06:10:14;;;;;;;15.63;5.53;;;;;;;;;;4959990;28;25067;-71
2023/05/25 06:12:40;;;;;;;14.45;5.05;;;;;;;;;;4957339;28;25079;-72
2023/05/25 06:15:06;;;;;;;11.88;5.25;;;;;;;;;;4957377;28;25120;-71
2023/05/25 06:17:32;;;;;;;18.60;5.53;;;;;;;;;;4959217;28;25076;-73
2023/05/25 06:19:58;;;;;;;10.32;4.60;;;;;;;;;;4961748;28;25073;-72
2023/05/25 06:22:26;;;;;;;12.45;4.50;;;;;;;;;;4955796;28;25075;-70
2023/05/25 06:24:52;;;;;;;11.02;4.20;;;;;;;;;;4958195;28;25058;-74
2023/05/25 06:27:18;;;;;;;13.70;5.00;;;;;;;;;;4956870;28;25048;-73
2023/05/25 06:29:44;;;;;;;16.13;5.47;;;;;;;;;;4962134;28;25072;-72
2023/05/25 06:32:10;;;;;;;15.40;4.55;;;;;;;;;;4957504;28;25077;-73
2023/05/25 06:34:37;;;;;;;11.40;5.30;;;;;;;;;;4959623;28;25065;-71
2023/05/25 06:37:03;;;;;;;11.95;4.65;;;;;;;;;;4959428;28;25069;-71
2023/05/25 06:39:29;;;;;;;14.20;5.05;;;;;;;;;;4962982;28;25069;-72
2023/05/25 06:41:55;;;;;;;11.63;4.70;;;;;;;;;;4961793;28;25097;-71
2023/05/25 06:44:21;;;;;;;14.35;5.10;;;;;;;;;;4962630;28;25050;-71
2023/05/25 06:46:47;;;;;;;13.25;5.30;;;;;;;;;;4970511;28;25072;-71
2023/05/25 06:49:13;;;;;;;13.40;4.90;;;;;;;;;;4962450;28;25059;-74
2023/05/25 06:51:39;;;;;;;14.27;5.15;;;;;;;;;;4963373;28;25060;-72
2023/05/25 06:54:07;;;;;;;8.85;4.78;;;;;;;;;;4957862;28;25040;-71
2023/05/25 06:56:33;;;;;;;8.63;4.80;;;;;;;;;;4959550;28;25085;-71
2023/05/25 06:58:59;;;;;;;10.13;4.63;;;;;;;;;;4960271;28;25089;-73
2023/05/25 07:01:25;;;;;;;12.82;4.97;;;;;;;;;;4962193;28;25061;-73
2023/05/25 07:03:51;;;;;;;11.60;3.95;;;;;;;;;;4961322;28;25182;-72
2023/05/25 07:06:17;;;;;;;11.98;3.80;;;;;;;;;;4965109;28;25063;-72
2023/05/25 07:08:43;;;;;;;11.07;4.25;;;;;;;;;;4961582;28;25060;-72
2023/05/25 07:11:11;;;;;;;8.60;4.03;;;;;;;;;;4962000;28;25087;-72
2023/05/25 07:13:37;;;;;;;8.90;3.20;;;;;;;;;;4961338;28;25064;-71
2023/05/25 07:16:03;;;;;;;7.38;4.30;;;;;;;;;;4961493;28;25075;-71
2023/05/25 07:18:29;;;;;;;12.18;3.97;;;;;;;;;;4961726;28;25144;-74
2023/05/25 07:20:55;;;;;;;11.63;3.75;;;;;;;;;;4963269;28;25137;-72
2023/05/25 07:23:21;;;;;;;12.07;4.20;;;;;;;;;;4961074;28;25080;-72
2023/05/25 07:25:47;;;;;;;13.05;4.65;;;;;;;;;;4964307;28;25148;-73
2023/05/25 07:28:13;;;;;;;5.97;3.65;;;;;;;;;;4960375;28;25136;-71
2023/05/25 07:30:40;;;;;;;7.43;3.63;;;;;;;;;;4960182;28;25073;-74
2023/05/25 07:33:06;;;;;;;10.00;3.35;;;;;;;;;;4958133;28;25062;-73
2023/05/25 07:35:34;;;;;;;11.73;4.38;;;;;;;;;;4960840;28;25070;-72
2023/05/25 07:38:00;;;;;;;12.45;4.20;;;;;;;;;;4962257;28;25156;-74
2023/05/25 07:40:27;;;;;;;12.23;4.13;;;;;;;;;;4963003;28;25105;-73
2023/05/25 07:42:53;;;;;;;8.65;3.85;;;;;;;;;;4960193;28;25136;-73
2023/05/25 07:45:19;;;;;;;12.00;3.42;;;;;;;;;;4962286;28;25069;-73
2023/05/25 07:47:45;;;;;;;6.85;3.45;;;;;;;;;;4965289;28;25053;-72
2023/05/25 07:50:12;;;;;;;8.70;3.25;;;;;;;;;;4963764;28;25064;-72
2023/05/25 07:52:38;;;;;;;10.20;3.38;;;;;;;;;;4960625;28;25082;-73
2023/05/25 07:55:05;;;;;;;13.00;3.67;;;;;;;;;;4960157;28;25163;-73
2023/05/25 07:57:31;;;;;;;6.80;3.13;;;;;;;;;;4959123;28;25049;-73
2023/05/25 07:59:57;;;;;;;8.52;2.90;;;;;;;;;;4960827;28;25060;-73
2023/05/25 08:02:23;;;;;;;10.35;3.38;;;;;;;;;;4960399;28;25068;-74
2023/05/25 08:04:49;;;;;;;8.23;2.75;;;;;;;;;;4961773;28;25180;-71
2023/05/25 08:07:15;;;;;;;9.57;2.92;;;;;;;;;;4963233;28;25063;-71
2023/05/25 08:09:41;;;;;;;7.80;3.13;;;;;;;;;;4962249;28;25066;-71
2023/05/25 08:12:07;;;;;;;7.78;2.45;;;;;;;;;;4962609;28;25153;-73
2023/05/25 08:14:33;;;;;;;7.35;3.17;;;;;;;;;;4962946;28;25056;-72
2023/05/25 08:16:58;;;;;;;11.95;3.63;;;;;;;;;;4961405;28;25072;-72
2023/05/25 08:19:24;;;;;;;9.60;3.35;;;;;;;;;;4962070;28;25061;-73
2023/05/25 08:21:50;;;;;;;10.30;4.10;;;;;;;;;;4964950;28;25072;-73
2023/05/25 08:24:16;;;;;;;9.77;3.50;;;;;;;;;;4962809;28;25053;-73
2023/05/25 08:26:42;;;;;;;9.38;3.45;;;;;;;;;;4964060;28;25070;-72
2023/05/25 08:29:08;;;;;;;11.35;3.97;;;;;;;;;;4960190;28;25135;-72
2023/05/25 08:31:36;;;;;;;10.50;3.38;;;;;;;;;;4961055;28;25069;-73
2023/05/25 08:34:01;;;;;;;10.90;3.10;;;;;;;;;;4960229;28;25047;-74
2023/05/25 08:36:28;;;;;;;6.65;3.03;;;;;;;;;;4961486;28;25051;-72
2023/05/25 08:38:54;;;;;;;12.07;2.78;;;;;;;;;;4959786;28;25152;-72
2023/05/25 08:41:23;;;;;;;8.57;3.22;;;;;;;;;;4965380;28;25055;-72
2023/05/25 08:43:49;;;;;;;11.52;3.50;;;;;;;;;;4960865;28;25128;-73
2023/05/25 08:46:16;;;;;;;6.53;3.30;;;;;;;;;;4961167;28;25066;-72
2023/05/25 08:48:43;;;;;;;5.60;3.22;;;;;;;;;;4959480;28;25145;-73
2023/05/25 08:51:10;;;;;;;10.15;4.78;;;;;;;;;;4961723;28;25059;-71
2023/05/25 08:53:37;;;;;;;12.50;3.92;;;;;;;;;;4961954;28;25362;-71
2023/05/25 08:56:25;;;;;;;10.50;3.47;;;;;;;;;;4964936;28;25078;-73
2023/05/25 08:58:57;;;;;;;7.45;3.58;;;;;;;;;;4962625;28;25087;-73
2023/05/25 09:01:26;;;;;;;10.35;3.70;;;;;;;;;;4961551;28;25051;-74
2023/05/25 09:03:53;;;;;;;8.82;3.58;;;;;;;;;;4959158;28;25099;-72
2023/05/25 09:06:19;;;;;;;10.35;2.97;;;;;;;;;;4962002;28;25059;-73
2023/05/25 09:08:45;;;;;;;11.02;3.13;;;;;;;;;;4962344;28;25061;-70
2023/05/25 09:11:11;;;;;;;8.07;3.15;;;;;;;;;;4960623;28;25092;-72
2023/05/25 09:13:38;;;;;;;14.57;3.42;;;;;;;;;;4960457;28;25069;-74
2023/05/25 09:16:04;;;;;;;10.30;3.72;;;;;;;;;;4962963;28;25142;-72
2023/05/25 09:18:30;;;;;;;7.88;3.40;;;;;;;;;;4959186;28;25155;-72
2023/05/25 09:20:56;;;;;;;7.28;3.25;;;;;;;;;;4960716;28;25153;-74
2023/05/25 09:23:22;;;;;;;8.93;2.95;;;;;;;;;;4959701;28;25139;-72
2023/05/25 09:25:49;;;;;;;11.60;3.40;;;;;;;;;;4959983;28;25100;-74
2023/05/25 09:28:18;;;;;;;8.35;3.70;;;;;;;;;;4958640;28;25069;-73
2023/05/25 09:30:44;;;;;;;9.70;3.40;;;;;;;;;;4960431;28;25081;-73
2023/05/25 09:33:11;;;;;;;10.02;2.88;;;;;;;;;;4957955;28;25078;-71
2023/05/25 09:35:37;;;;;;;7.97;3.20;;;;;;;;;;4961125;28;25058;-72
2023/05/25 09:38:03;;;;;;;12.68;3.42;;;;;;;;;;4958096;28;25058;-71
2023/05/25 09:40:30;;;;;;;10.68;3.75;;;;;;;;;;4966570;28;25102;-74
2023/05/25 09:42:57;;;;;;;9.70;3.47;;;;;;;;;;4960667;28;25056;-74
2023/05/25 09:45:23;;;;;;;9.98;3.25;;;;;;;;;;4963367;28;25075;-72
2023/05/25 09:47:53;;;;;;;8.30;4.03;;;;;;;;;;4959097;28;25167;-73
2023/05/25 09:50:20;;;;;;;14.88;3.80;;;;;;;;;;4959382;28;25046;-73
2023/05/25 09:52:46;;;;;;;12.73;4.00;;;;;;;;;;4959186;28;25054;-71
2023/05/25 09:55:12;;;;;;;9.63;3.55;;;;;;;;;;4960525;28;25094;-72
2023/05/25 09:57:38;;;;;;;8.25;2.85;;;;;;;;;;4958357;28;25153;-72
2023/05/25 10:00:05;;;;;;;8.02;3.17;;;;;;;;;;4956845;28;25139;-72
2023/05/25 10:02:31;;;;;;;13.23;3.72;;;;;;;;;;4959144;28;25073;-72
2023/05/25 10:04:57;;;;;;;8.93;2.85;;;;;;;;;;4959236;28;25095;-73
2023/05/25 10:07:23;;;;;;;8.45;3.47;;;;;;;;;;4959622;28;25097;-75
2023/05/25 10:09:52;;;;;;;8.82;3.30;;;;;;;;;;4959001;28;25054;-73
2023/05/25 10:12:19;;;;;;;10.85;3.60;;;;;;;;;;4959230;28;25081;-72
2023/05/25 10:14:45;;;;;;;7.88;2.55;;;;;;;;;;4960923;28;25156;-72
2023/05/25 10:17:13;;;;;;;10.15;3.33;;;;;;;;;;4957188;28;25071;-72
2023/05/25 10:19:41;;;;;;;9.82;3.75;;;;;;;;;;4961635;28;25094;-72
2023/05/25 10:22:07;;;;;;;10.55;2.90;;;;;;;;;;4958851;28;25168;-72
2023/05/25 10:24:36;;;;;;;10.40;3.38;;;;;;;;;;4958278;28;25109;-72
2023/05/25 10:27:03;;;;;;;6.65;2.63;;;;;;;;;;4957256;28;25142;-75
2023/05/25 10:29:30;;;;;;;7.57;3.20;;;;;;;;;;4961063;28;25116;-74
2023/05/25 10:31:58;;;;;;;6.68;2.78;;;;;;;;;;4961273;28;25099;-73
2023/05/25 10:34:23;;;;;;;7.15;2.97;;;;;;;;;;4961832;28;25077;-72
2023/05/25 10:36:50;;;;;;;5.50;2.97;;;;;;;;;;4964393;28;25054;-71
2023/05/25 10:39:17;;;;;;;11.57;4.20;;;;;;;;;;4967699;28;25061;-71
2023/05/25 10:41:43;;;;;;;7.65;3.03;;;;;;;;;;4968278;28;25083;-72
2023/05/25 10:44:09;;;;;;;8.75;2.90;;;;;;;;;;4971540;28;25100;-74
2023/05/25 10:46:35;;;;;;;6.63;2.58;;;;;;;;;;4966855;28;25085;-73
2023/05/25 10:49:02;;;;;;;8.68;3.88;;;;;;;;;;4967546;28;25147;-74
2023/05/25 10:51:38;;;;;;;7.22;2.92;;;;;;;;;;4974395;28;25090;-72
2023/05/25 10:54:04;;;;;;;9.63;3.25;;;;;;;;;;4965189;28;25131;-73
2023/05/25 10:56:30;;;;;;;8.98;2.85;;;;;;;;;;4965262;28;25052;-73
2023/05/25 10:58:56;;;;;;;7.15;2.85;;;;;;;;;;4963290;28;25062;-72
2023/05/25 11:01:22;;;;;;;6.05;3.08;;;;;;;;;;4962579;28;25150;-73
2023/05/25 11:04:17;;;;;;;8.65;2.97;;;;;;;;;;4961569;28;25159;-73
2023/05/25 11:06:45;;;;;;;7.75;3.25;;;;;;;;;;4965393;28;25071;-73
2023/05/25 11:09:27;;;;;;;10.88;2.88;;;;;;;;;;4959605;28;25152;-73
2023/05/25 11:11:58;;;;;;;11.65;4.43;;;;;;;;;;4962808;28;25087;-73
2023/05/25 11:14:30;;;;;;;10.32;2.60;;;;;;;;;;4962216;28;25053;-74
2023/05/25 11:17:15;;;;;;;9.90;3.35;;;;;;;;;;4971448;28;25088;-73
2023/05/25 11:19:48;;;;;;;9.32;2.47;;;;;;;;;;4965150;28;25154;-73
2023/05/25 11:22:21;;;;;;;9.20;3.40;;;;;;;;;;4961613;28;25071;-73
2023/05/25 11:24:51;;;;;;;11.27;3.25;;;;;;;;;;4976184;28;25144;-74
2023/05/25 11:27:24;;;;;;;7.68;2.67;;;;;;;;;;4961122;28;25095;-73
2023/05/25 11:29:51;;;;;;;7.20;3.30;;;;;;;;;;4962450;28;25059;-73
2023/05/25 11:32:17;;;;;;;8.35;3.45;;;;;;;;;;4959036;28;25085;-74
2023/05/25 11:34:45;;;;;;;11.38;3.20;;;;;;;;;;4961533;28;25175;-73
2023/05/25 11:37:14;;;;;;;9.63;3.15;;;;;;;;;;4964286;28;25143;-73
2023/05/25 11:39:41;;;;;;;8.70;3.75;;;;;;;;;;4962050;28;25099;-73
2023/05/25 11:42:07;;;;;;;12.38;3.40;;;;;;;;;;4961161;28;25147;-71
2023/05/25 11:44:35;;;;;;;8.15;2.85;;;;;;;;;;4962258;28;25142;-74
2023/05/25 11:47:13;;;;;;;9.40;2.97;;;;;;;;;;4962128;28;25063;-74
2023/05/25 11:49:40;;;;;;;10.00;3.47;;;;;;;;;;4963428;28;25099;-76
2023/05/25 11:52:07;;;;;;;8.82;3.20;;;;;;;;;;4959639;28;25074;-72
2023/05/25 11:54:33;;;;;;;10.40;3.40;;;;;;;;;;4960749;28;25072;-73
2023/05/25 11:57:00;;;;;;;4.47;2.58;;;;;;;;;;4961630;28;25066;-73
2023/05/25 11:59:26;;;;;;;12.63;2.78;;;;;;;;;;4960120;28;25070;-75
2023/05/25 12:01:59;;;;;;;12.77;3.28;;;;;;;;;;4962864;28;25132;-74
2023/05/25 12:04:25;;;;;;;9.07;3.33;;;;;;;;;;4959324;28;25170;-72
2023/05/25 12:06:52;;;;;;;7.75;3.00;;;;;;;;;;4961047;28;25054;-74
2023/05/25 12:09:21;;;;;;;9.00;3.30;;;;;;;;;;4960480;28;25118;-72
2023/05/25 12:11:47;;;;;;;10.30;2.97;;;;;;;;;;4962200;28;25089;-73
2023/05/25 12:14:13;;;;;;;8.77;4.40;;;;;;;;;;4958670;28;25176;-73
2023/05/25 12:16:40;;;;;;;12.60;4.10;;;;;;;;;;4957905;28;25068;-72
2023/05/25 12:19:07;;;;;;;16.85;4.53;;;;;;;;;;4957406;28;25049;-73
2023/05/25 12:21:33;;;;;;;10.10;3.88;;;;;;;;;;4958051;28;25121;-73
2023/05/25 12:24:00;;;;;;;7.28;2.95;;;;;;;;;;4960061;28;25053;-73
2023/05/25 12:26:28;;;;;;;12.32;3.63;;;;;;;;;;4963868;28;25127;-75
2023/05/25 12:29:00;;;;;;;10.20;3.97;;;;;;;;;;4961174;28;25081;-74
2023/05/25 12:31:27;;;;;;;12.25;3.80;;;;;;;;;;4962357;28;25142;-73
2023/05/25 12:34:06;;;;;;;13.93;4.50;;;;;;;;;;4963467;28;25086;-73
2023/05/25 12:36:51;;;;;;;9.25;3.97;;;;;;;;;;4963724;28;25063;-74
2023/05/25 12:39:17;;;;;;;12.50;4.15;;;;;;;;;;4957909;28;25087;-73
2023/05/25 12:41:44;;;;;;;11.88;4.40;;;;;;;;;;4963407;28;25091;-72
2023/05/25 12:44:17;;;;;;;9.95;3.95;;;;;;;;;;4961327;28;25055;-72
2023/05/25 12:46:43;;;;;;;8.98;4.15;;;;;;;;;;4963048;28;25068;-74
2023/05/25 12:49:41;;;;;;;10.70;4.47;;;;;;;;;;4959575;28;25150;-76
2023/05/25 12:52:08;;;;;;;8.00;3.80;;;;;;;;;;4924832;28;25101;-73
2023/05/25 12:54:35;;;;;;;10.82;4.13;;;;;;;;;;4964036;28;25160;-71
2023/05/25 12:57:01;;;;;;;11.15;3.55;;;;;;;;;;4961661;28;25122;-74
2023/05/25 12:59:28;;;;;;;8.30;3.50;;;;;;;;;;4961050;28;25065;-71
2023/05/25 13:01:54;;;;;;;10.02;3.25;;;;;;;;;;4963516;28;25495;-71
2023/05/25 13:04:20;;;;;;;11.02;3.85;;;;;;;;;;4965574;28;25056;-71
2023/05/25 13:06:46;;;;;;;8.68;3.05;;;;;;;;;;4963263;28;25069;-74
2023/05/25 13:09:12;;;;;;;11.32;3.67;;;;;;;;;;4958981;28;25059;-72
2023/05/25 13:11:38;;;;;;;6.32;2.53;;;;;;;;;;4962898;28;25071;-74
2023/05/25 13:14:04;;;;;;;11.43;3.30;;;;;;;;;;4965389;28;25102;-73
2023/05/25 13:16:33;;;;;;;5.72;2.85;;;;;;;;;;4965165;28;25061;-75
2023/05/25 13:19:00;;;;;;;6.15;2.75;;;;;;;;;;4962171;28;25051;-72
2023/05/25 13:21:27;;;;;;;8.75;2.72;;;;;;;;;;4961959;28;25042;-74
2023/05/25 13:23:53;;;;;;;6.68;2.53;;;;;;;;;;4961253;28;25072;-74
2023/05/25 13:26:19;;;;;;;6.45;2.83;;;;;;;;;;4961483;28;25121;-73
2023/05/25 13:28:45;;;;;;;7.88;2.22;;;;;;;;;;4959392;28;25227;-71
2023/05/25 13:31:11;;;;;;;7.50;3.13;;;;;;;;;;4961138;28;25066;-72
2023/05/25 13:33:37;;;;;;;9.95;3.33;;;;;;;;;;4965780;28;25078;-72
2023/05/25 13:36:06;;;;;;;11.07;3.40;;;;;;;;;;4965477;28;25072;-74
2023/05/25 13:38:36;;;;;;;5.18;2.22;;;;;;;;;;4956027;28;25074;-71
2023/05/25 13:41:02;;;;;;;8.13;2.83;;;;;;;;;;4961911;28;25114;-72
2023/05/25 13:43:28;;;;;;;7.75;3.47;;;;;;;;;;4960381;28;25091;-75
2023/05/25 13:45:55;;;;;;;19.52;3.90;;;;;;;;;;4963396;28;25107;-74
2023/05/25 13:48:21;;;;;;;13.40;3.42;;;;;;;;;;4960010;28;25086;-73
2023/05/25 13:50:48;;;;;;;7.47;3.40;;;;;;;;;;4960526;28;25100;-73
2023/05/25 13:53:14;;;;;;;9.45;2.78;;;;;;;;;;4959981;28;25129;-74
2023/05/25 13:55:40;;;;;;;9.60;3.58;;;;;;;;;;4963078;28;25114;-73
2023/05/25 13:58:06;;;;;;;10.95;3.72;;;;;;;;;;4960650;28;25138;-73
2023/05/25 14:00:33;;;;;;;8.45;3.83;;;;;;;;;;4969392;28;25088;-72
2023/05/25 14:02:59;;;;;;;8.27;3.10;;;;;;;;;;4963487;28;25055;-75
2023/05/25 14:05:25;;;;;;;6.78;2.85;;;;;;;;;;4962667;28;25047;-74
2023/05/25 14:07:52;;;;;;;15.60;3.80;;;;;;;;;;4960268;28;25059;-75
2023/05/25 14:10:18;;;;;;;12.43;3.13;;;;;;;;;;4965376;28;25062;-73
2023/05/25 14:12:44;;;;;;;6.70;3.05;;;;;;;;;;4964003;28;25166;-75
2023/05/25 14:15:10;;;;;;;11.70;3.10;;;;;;;;;;4961041;28;25112;-73
2023/05/25 14:17:36;;;;;;;8.27;3.10;;;;;;;;;;4963306;28;25170;-73
2023/05/25 14:20:02;;;;;;;11.63;3.75;;;;;;;;;;4962641;28;25055;-74
2023/05/25 14:22:29;;;;;;;9.35;3.47;;;;;;;;;;4964203;28;25064;-75
2023/05/25 14:24:56;;;;;;;10.85;3.80;;;;;;;;;;4966878;28;25081;-76
2023/05/25 14:27:22;;;;;;;10.93;3.70;;;;;;;;;;4963508;28;25055;-74
2023/05/25 14:29:49;;;;;;;13.88;3.78;;;;;;;;;;4967174;28;25132;-77
2023/05/25 14:32:15;;;;;;;9.55;3.20;;;;;;;;;;4963492;28;25071;-71